createdAt,value
2022-09-06T00:00:34.394Z,52.99
2022-09-06T00:03:03.819Z,52.55
2022-09-06T00:05:33.138Z,52.35
2022-09-06T00:08:02.645Z,52.59
2022-09-06T00:10:32.079Z,53.18
2022-09-06T00:13:04.178Z,52.86
2022-09-06T00:15:33.336Z,53.29
2022-09-06T00:18:03.168Z,53.24
2022-09-06T00:20:32.443Z,53.26
2022-09-06T00:23:04.924Z,52.79
2022-09-06T00:25:34.042Z,52.70
2022-09-06T00:28:06.891Z,52.89
2022-09-06T00:30:35.816Z,53.21
2022-09-06T00:33:05.161Z,53.15
2022-09-06T00:35:33.760Z,53.42
2022-09-06T00:38:03.299Z,53.70
2022-09-06T00:40:35.780Z,53.96
2022-09-06T00:43:05.939Z,54.18
2022-09-06T00:45:35.081Z,54.06
2022-09-06T00:48:05.563Z,54.03
2022-09-06T00:50:34.421Z,53.84
2022-09-06T00:53:03.407Z,54.10
2022-09-06T00:55:32.129Z,54.54
2022-09-06T00:58:00.719Z,54.76
2022-09-06T01:00:31.042Z,54.73
2022-09-06T01:02:59.724Z,54.59
2022-09-06T01:05:33.473Z,54.24
2022-09-06T01:08:09.766Z,54.45
2022-09-06T01:10:55.270Z,54.65
2022-09-06T01:13:32.253Z,54.71
2022-09-06T01:16:08.165Z,54.87
2022-09-06T01:18:50.607Z,54.99
2022-09-06T01:21:29.738Z,54.74
2022-09-06T01:24:20.714Z,55.11
2022-09-06T01:27:24.611Z,55.39
2022-09-06T01:29:58.851Z,55.50
2022-09-06T01:32:30.780Z,55.18
2022-09-06T01:35:05.096Z,55.02
2022-09-06T01:37:33.912Z,55.13
2022-09-06T01:40:03.221Z,54.78
2022-09-06T01:42:33.109Z,54.92
2022-09-06T01:45:04.987Z,55.07
2022-09-06T01:47:39.867Z,54.98
2022-09-06T01:50:36.764Z,54.89
2022-09-06T01:53:13.781Z,54.57
2022-09-06T01:55:47.989Z,54.94
2022-09-06T01:58:29.405Z,54.70
2022-09-06T02:01:00.484Z,54.89
2022-09-06T02:03:33.400Z,54.84
2022-09-06T02:06:05.822Z,54.99
2022-09-06T02:08:37.641Z,54.25
2022-09-06T02:11:08.897Z,54.25
2022-09-06T02:13:45.088Z,54.05
2022-09-06T02:16:21.435Z,53.97
2022-09-06T02:18:53.740Z,54.50
2022-09-06T02:21:26.041Z,55.10
2022-09-06T02:23:57.445Z,55.11
2022-09-06T02:26:26.547Z,54.92
2022-09-06T02:28:55.760Z,54.89
2022-09-06T02:31:28.803Z,54.76
2022-09-06T02:33:57.776Z,55.15
2022-09-06T02:36:26.754Z,54.81
2022-09-06T02:38:55.789Z,55.17
2022-09-06T02:41:25.427Z,55.35
2022-09-06T02:43:54.016Z,55.15
2022-09-06T02:46:24.443Z,55.17
2022-09-06T02:48:54.801Z,55.61
2022-09-06T02:51:23.389Z,55.68
2022-09-06T02:53:52.013Z,55.93
2022-09-06T02:56:20.911Z,56.15
2022-09-06T02:58:49.948Z,55.72
2022-09-06T03:01:18.574Z,55.50
2022-09-06T03:03:49.223Z,55.50
2022-09-06T03:06:19.181Z,55.34
2022-09-06T03:08:48.070Z,55.54
2022-09-06T03:11:16.655Z,54.84
2022-09-06T03:13:45.274Z,55.80
2022-09-06T03:16:14.187Z,55.07
2022-09-06T03:18:42.880Z,55.37
2022-09-06T03:21:11.842Z,55.27
2022-09-06T03:23:42.149Z,55.08
2022-09-06T03:26:10.765Z,54.14
2022-09-06T03:28:39.585Z,54.75
2022-09-06T03:31:08.531Z,54.90
2022-09-06T03:33:37.290Z,54.67
2022-09-06T03:36:06.097Z,54.59
2022-09-06T03:38:35.087Z,54.33
2022-09-06T03:41:05.066Z,54.42
2022-09-06T03:43:33.990Z,54.06
2022-09-06T03:46:02.930Z,54.72
2022-09-06T03:48:35.953Z,54.25
2022-09-06T03:51:04.853Z,54.00
2022-09-06T03:53:33.490Z,53.33
2022-09-06T03:56:02.096Z,53.50
2022-09-06T03:58:33.219Z,53.82
2022-09-06T04:01:06.544Z,54.01
2022-09-06T04:03:36.402Z,54.61
2022-09-06T04:06:06.177Z,54.39
2022-09-06T04:08:35.708Z,54.39
2022-09-06T04:11:04.966Z,53.94
2022-09-06T04:13:35.981Z,54.26
2022-09-06T04:16:05.641Z,53.93
2022-09-06T04:18:34.376Z,53.61
2022-09-06T04:21:03.044Z,53.65
2022-09-06T04:23:34.290Z,53.18
2022-09-06T04:26:05.316Z,53.21
2022-09-06T04:28:35.586Z,53.18
2022-09-06T04:31:05.528Z,53.33
2022-09-06T04:33:35.740Z,53.07
2022-09-06T04:36:06.742Z,53.77
2022-09-06T04:38:42.036Z,54.47
2022-09-06T04:41:11.489Z,53.72
2022-09-06T04:43:41.744Z,53.60
2022-09-06T04:46:15.077Z,53.70
2022-09-06T04:48:44.020Z,53.93
2022-09-06T04:51:12.618Z,54.04
2022-09-06T04:53:41.763Z,53.99
2022-09-06T04:56:16.029Z,53.77
2022-09-06T04:58:47.393Z,53.15
2022-09-06T05:01:17.210Z,53.76
2022-09-06T05:03:45.934Z,53.25
2022-09-06T05:06:19.176Z,53.01
2022-09-06T05:08:48.366Z,52.91
2022-09-06T05:11:17.373Z,52.56
2022-09-06T05:13:48.201Z,52.95
2022-09-06T05:16:17.050Z,53.24
2022-09-06T05:18:45.611Z,52.13
2022-09-06T05:21:14.277Z,52.60
2022-09-06T05:23:43.353Z,52.21
2022-09-06T05:26:11.924Z,51.52
2022-09-06T05:28:42.791Z,51.59
2022-09-06T05:31:13.272Z,51.31
2022-09-06T05:33:41.830Z,50.53
2022-09-06T05:36:11.383Z,52.08
2022-09-06T05:38:40.265Z,51.64
2022-09-06T05:41:08.864Z,52.21
2022-09-06T05:43:37.495Z,51.70
2022-09-06T05:46:06.762Z,50.77
2022-09-06T05:48:37.424Z,51.03
2022-09-06T05:51:08.121Z,51.09
2022-09-06T05:53:37.333Z,50.63
2022-09-06T05:56:07.393Z,50.62
2022-09-06T05:58:36.233Z,50.17
2022-09-06T06:01:09.986Z,49.41
2022-09-06T06:03:40.270Z,49.69
2022-09-06T06:06:08.980Z,49.29
2022-09-06T06:08:37.616Z,49.44
2022-09-06T06:11:06.763Z,49.51
2022-09-06T06:13:39.493Z,48.94
2022-09-06T06:16:11.732Z,48.56
2022-09-06T06:18:41.841Z,47.04
2022-09-06T06:21:12.610Z,46.95
2022-09-06T06:23:42.713Z,46.23
2022-09-06T06:26:12.070Z,46.75
2022-09-06T06:28:41.357Z,46.09
2022-09-06T06:31:12.139Z,46.13
2022-09-06T06:33:42.664Z,45.98
2022-09-06T06:36:21.792Z,46.41
2022-09-06T06:38:52.143Z,45.22
2022-09-06T06:41:23.951Z,45.64
2022-09-06T06:43:53.872Z,46.29
2022-09-06T06:46:23.998Z,45.87
2022-09-06T06:48:55.485Z,45.39
2022-09-06T06:51:25.600Z,44.88
2022-09-06T06:53:54.471Z,44.17
2022-09-06T06:56:24.541Z,43.90
2022-09-06T06:58:54.728Z,43.51
2022-09-06T07:01:23.897Z,44.32
2022-09-06T07:03:54.834Z,43.93
2022-09-06T07:09:12.654Z,43.38
2022-09-06T07:11:41.523Z,42.87
2022-09-06T07:14:10.154Z,42.97
2022-09-06T07:16:38.818Z,42.74
2022-09-06T07:22:01.466Z,42.19
2022-09-06T07:24:33.437Z,41.64
2022-09-06T07:29:50.937Z,42.41
2022-09-06T07:32:19.578Z,42.13
2022-09-06T07:34:49.627Z,42.20
2022-09-06T07:37:18.575Z,41.96
2022-09-06T07:39:47.282Z,41.79
2022-09-06T07:42:16.670Z,42.24
2022-09-06T07:44:45.538Z,41.72
2022-09-06T07:53:15.035Z,41.11
2022-09-06T07:55:44.464Z,40.81
2022-09-06T07:58:13.068Z,40.91
2022-09-06T08:00:41.978Z,41.02
2022-09-06T08:03:10.951Z,40.56
2022-09-06T08:11:18.904Z,41.39
2022-09-06T08:13:51.317Z,40.50
2022-09-06T08:16:20.281Z,40.31
2022-09-06T08:18:52.026Z,40.47
2022-09-06T08:21:23.646Z,40.06
2022-09-06T08:23:54.439Z,39.57
2022-09-06T08:26:24.837Z,39.91
2022-09-06T08:28:58.902Z,39.82
2022-09-06T08:31:28.579Z,39.49
2022-09-06T08:33:58.052Z,40.11
2022-09-06T08:36:29.724Z,39.43
2022-09-06T08:38:59.116Z,38.75
2022-09-06T08:41:29.455Z,38.71
2022-09-06T08:46:54.531Z,37.93
2022-09-06T08:49:23.825Z,39.09
2022-09-06T08:52:07.940Z,38.67
2022-09-06T08:54:39.996Z,38.22
2022-09-06T08:57:14.507Z,38.41
2022-09-06T08:59:44.156Z,38.25
2022-09-06T09:02:14.759Z,39.87
2022-09-06T09:04:44.723Z,38.50
2022-09-06T09:07:28.206Z,37.67
2022-09-06T09:09:57.423Z,37.91
2022-09-06T09:12:26.466Z,37.77
2022-09-06T09:15:00.153Z,38.71
2022-09-06T09:17:30.895Z,38.69
2022-09-06T09:19:59.677Z,38.19
2022-09-06T09:22:29.749Z,37.97
2022-09-06T09:25:00.322Z,38.05
2022-09-06T09:27:29.701Z,37.99
2022-09-06T09:32:51.480Z,37.97
2022-09-06T09:35:23.537Z,38.03
2022-09-06T09:38:07.772Z,37.69
2022-09-06T09:40:41.945Z,37.89
2022-09-06T09:43:15.249Z,38.23
2022-09-06T09:45:44.819Z,37.34
2022-09-06T09:48:28.002Z,38.67
2022-09-06T09:50:57.128Z,38.26
2022-09-06T09:53:27.301Z,37.03
2022-09-06T09:55:57.322Z,37.59
2022-09-06T09:58:33.160Z,37.13
2022-09-06T10:01:13.628Z,37.28
2022-09-06T10:09:32.296Z,37.54
2022-09-06T10:12:01.677Z,37.77
2022-09-06T10:14:32.231Z,37.06
2022-09-06T10:17:01.595Z,36.77
2022-09-06T10:19:39.299Z,37.58
2022-09-06T10:22:15.237Z,36.67
2022-09-06T10:24:54.767Z,36.72
2022-09-06T10:27:27.323Z,36.69
2022-09-06T10:29:59.735Z,36.84
2022-09-06T10:32:38.627Z,36.61
2022-09-06T10:35:13.116Z,36.25
2022-09-06T10:37:49.464Z,36.94
2022-09-06T10:40:29.610Z,36.32
2022-09-06T10:42:59.240Z,35.32
2022-09-06T10:45:39.532Z,35.59
2022-09-06T10:48:14.928Z,37.73
2022-09-06T10:50:49.943Z,38.12
2022-09-06T10:53:33.178Z,37.45
2022-09-06T10:56:12.632Z,36.91
2022-09-06T11:01:39.727Z,36.17
2022-09-06T11:04:12.880Z,37.55
2022-09-06T11:06:45.694Z,36.11
2022-09-06T11:09:22.245Z,36.87
2022-09-06T11:11:59.681Z,36.38
2022-09-06T11:14:28.800Z,36.10
2022-09-06T11:17:01.021Z,35.90
2022-09-06T11:19:33.582Z,35.90
2022-09-06T11:22:39.289Z,35.22
2022-09-06T11:25:35.110Z,37.08
2022-09-06T11:28:08.495Z,36.66
2022-09-06T11:30:37.334Z,35.66
2022-09-06T11:33:12.411Z,34.62
2022-09-06T11:35:42.588Z,34.46
2022-09-06T11:38:22.026Z,33.98
2022-09-06T11:40:55.871Z,34.01
2022-09-06T11:43:44.536Z,34.61
2022-09-06T11:46:54.409Z,33.89
2022-09-06T11:49:41.846Z,34.23
2022-09-06T11:52:59.850Z,34.58
2022-09-06T11:55:36.563Z,33.80
2022-09-06T11:58:10.228Z,32.89
2022-09-06T12:00:40.468Z,34.57
2022-09-06T12:06:16.630Z,32.44
2022-09-06T12:08:45.687Z,33.96
2022-09-06T12:11:34.857Z,33.96
2022-09-06T12:14:06.523Z,33.65
2022-09-06T12:17:30.377Z,32.20
2022-09-06T12:20:06.995Z,31.67
2022-09-06T12:22:55.330Z,31.38
2022-09-06T12:25:58.045Z,31.37
2022-09-06T12:28:49.745Z,31.99
2022-09-06T12:31:29.536Z,31.81
2022-09-06T12:33:59.216Z,31.69
2022-09-06T12:36:32.074Z,30.19
2022-09-06T12:39:02.191Z,29.63
2022-09-06T12:41:32.783Z,30.54
2022-09-06T12:44:02.918Z,30.47
2022-09-06T12:46:32.827Z,31.52
2022-09-06T12:49:06.901Z,29.44
2022-09-06T12:51:37.918Z,30.44
2022-09-06T12:54:17.225Z,32.13
2022-09-06T12:56:46.489Z,30.00
2022-09-06T12:59:17.632Z,29.16
2022-09-06T13:02:01.552Z,30.09
2022-09-06T13:04:38.241Z,28.11
2022-09-06T13:07:11.483Z,28.19
2022-09-06T13:09:43.845Z,28.85
2022-09-06T13:12:24.812Z,27.10
2022-09-06T13:14:54.289Z,28.62
2022-09-06T13:17:27.925Z,28.40
2022-09-06T13:19:58.168Z,29.17
2022-09-06T13:22:43.705Z,28.34
2022-09-06T13:25:20.661Z,28.73
2022-09-06T13:27:51.216Z,27.79
2022-09-06T13:30:37.928Z,29.06
2022-09-06T13:33:08.006Z,29.21
2022-09-06T13:35:38.518Z,30.04
2022-09-06T13:38:32.841Z,29.33
2022-09-06T13:41:13.482Z,29.56
2022-09-06T13:43:45.975Z,30.00
2022-09-06T13:46:14.977Z,30.33
2022-09-06T13:48:44.637Z,29.98
2022-09-06T13:51:13.650Z,29.96
2022-09-06T13:53:43.737Z,30.00
2022-09-06T13:56:12.633Z,30.59
2022-09-06T13:58:41.249Z,30.85
2022-09-06T14:01:10.938Z,30.98
2022-09-06T14:03:42.794Z,32.06
2022-09-06T14:06:12.576Z,32.41
2022-09-06T14:09:05.921Z,32.60
2022-09-06T14:11:31.621Z,32.90
2022-09-06T14:14:00.555Z,32.75
2022-09-06T14:16:29.356Z,32.34
2022-09-06T14:18:58.037Z,33.84
2022-09-06T14:21:26.961Z,34.43
2022-09-06T14:24:02.037Z,34.48
2022-09-06T14:26:33.187Z,34.89
2022-09-06T14:29:02.072Z,35.33
2022-09-06T14:31:35.189Z,34.45
2022-09-06T14:34:05.006Z,34.78
2022-09-06T14:36:34.681Z,36.50
2022-09-06T14:39:05.491Z,36.51
2022-09-06T14:41:34.463Z,36.33
2022-09-06T14:44:03.989Z,35.87
2022-09-06T14:46:32.688Z,35.77
2022-09-06T14:49:03.014Z,36.82
2022-09-06T14:51:31.884Z,36.52
2022-09-06T14:54:03.233Z,37.59
2022-09-06T14:56:33.614Z,37.53
2022-09-06T14:59:02.219Z,37.06
2022-09-06T15:01:37.880Z,36.73
2022-09-06T15:04:08.691Z,36.79
2022-09-06T15:06:39.921Z,37.80
2022-09-06T15:09:11.420Z,37.25
2022-09-06T15:11:44.355Z,37.13
2022-09-06T15:14:16.062Z,40.51
2022-09-06T15:16:45.002Z,44.57
2022-09-06T15:19:14.044Z,50.38
2022-09-06T15:21:42.796Z,55.86
2022-09-06T15:24:12.324Z,60.56
2022-09-06T15:26:44.929Z,62.46
2022-09-06T15:29:14.267Z,64.00
2022-09-06T15:31:44.885Z,68.03
2022-09-06T15:34:14.500Z,72.63
2022-09-06T15:36:43.437Z,71.92
2022-09-06T15:39:12.174Z,71.44
2022-09-06T15:41:41.288Z,71.44
2022-09-06T15:44:13.072Z,71.18
2022-09-06T15:46:50.040Z,70.96
2022-09-06T15:49:24.370Z,71.23
2022-09-06T15:51:56.183Z,71.60
2022-09-06T15:54:45.175Z,70.43
2022-09-06T15:57:16.222Z,71.34
2022-09-06T15:59:46.661Z,71.76
2022-09-06T16:02:15.587Z,72.00
2022-09-06T16:04:44.480Z,72.24
2022-09-06T16:07:13.529Z,71.86
2022-09-06T16:09:42.551Z,72.14
2022-09-06T16:12:11.771Z,70.55
2022-09-06T16:14:40.360Z,68.06
2022-09-06T16:17:12.308Z,69.05
2022-09-06T16:19:41.245Z,68.74
2022-09-06T16:22:10.137Z,70.65
2022-09-06T16:24:38.770Z,68.89
2022-09-06T16:27:07.697Z,68.24
2022-09-06T16:29:36.343Z,68.75
2022-09-06T16:32:04.972Z,68.22
2022-09-06T16:34:35.218Z,67.51
2022-09-06T16:37:07.871Z,70.56
2022-09-06T16:39:36.945Z,71.07
2022-09-06T16:42:05.673Z,71.71
2022-09-06T16:44:34.296Z,70.69
2022-09-06T16:47:04.166Z,70.80
2022-09-06T16:49:32.828Z,71.08
2022-09-06T16:52:02.942Z,70.05
2022-09-06T16:54:31.881Z,70.35
2022-09-06T16:57:02.655Z,70.40
2022-09-06T16:59:31.260Z,71.40
2022-09-06T17:02:00.376Z,71.38
2022-09-06T17:04:29.379Z,70.71
2022-09-06T17:06:57.954Z,70.63
2022-09-06T17:09:28.264Z,70.89
2022-09-06T17:11:56.884Z,70.80
2022-09-06T17:14:25.763Z,70.89
2022-09-06T17:17:05.931Z,70.77
2022-09-06T17:19:39.439Z,70.96
2022-09-06T17:22:10.097Z,70.88
2022-09-06T17:24:40.567Z,70.90
2022-09-06T17:27:09.991Z,71.06
2022-09-06T17:29:40.210Z,71.53
2022-09-06T17:32:10.508Z,72.12
2022-09-06T17:34:40.040Z,72.14
2022-09-06T17:37:09.409Z,70.88
2022-09-06T17:39:38.612Z,70.62
2022-09-06T17:42:09.055Z,71.08
2022-09-06T17:44:38.145Z,70.92
2022-09-06T17:47:14.550Z,71.52
2022-09-06T17:49:43.923Z,71.03
2022-09-06T17:52:12.890Z,70.20
2022-09-06T17:54:41.644Z,70.46
2022-09-06T17:57:12.167Z,70.29
2022-09-06T17:59:41.075Z,69.92
2022-09-06T18:02:10.279Z,69.42
2022-09-06T18:04:39.747Z,68.82
2022-09-06T18:07:08.683Z,69.37
2022-09-06T18:09:37.988Z,69.77
2022-09-06T18:12:07.346Z,70.62
2022-09-06T18:14:37.892Z,70.22
2022-09-06T18:17:08.767Z,69.90
2022-09-06T18:19:38.824Z,69.92
2022-09-06T18:22:07.792Z,70.43
2022-09-06T18:24:36.795Z,69.73
2022-09-06T18:27:07.290Z,69.40
2022-09-06T18:29:37.608Z,69.57
2022-09-06T18:32:07.673Z,69.36
2022-09-06T18:34:36.761Z,69.11
2022-09-06T18:37:06.135Z,69.83
2022-09-06T18:39:35.389Z,70.03
2022-09-06T18:42:11.402Z,69.93
2022-09-06T18:44:42.048Z,70.41
2022-09-06T18:47:12.856Z,70.83
2022-09-06T18:49:44.373Z,70.81
2022-09-06T18:52:13.563Z,71.37
2022-09-06T18:54:44.017Z,71.82
2022-09-06T18:57:13.159Z,71.32
2022-09-06T18:59:43.842Z,70.88
2022-09-06T19:02:13.153Z,69.07
2022-09-06T19:04:42.213Z,69.70
2022-09-06T19:07:11.271Z,70.77
2022-09-06T19:09:40.388Z,69.92
2022-09-06T19:12:12.234Z,70.20
2022-09-06T19:14:41.405Z,69.95
2022-09-06T19:17:11.980Z,69.83
2022-09-06T19:19:41.174Z,69.74
2022-09-06T19:22:10.469Z,69.37
2022-09-06T19:24:40.216Z,69.77
2022-09-06T19:27:09.378Z,70.31
2022-09-06T19:29:38.742Z,69.23
2022-09-06T19:32:08.065Z,69.46
2022-09-06T19:34:41.003Z,69.92
2022-09-06T19:37:10.197Z,70.35
2022-09-06T19:39:39.259Z,69.92
2022-09-06T19:42:42.687Z,70.29
2022-09-06T19:45:12.977Z,69.54
2022-09-06T19:47:41.667Z,70.01
2022-09-06T19:50:11.953Z,70.09
2022-09-06T19:52:41.259Z,70.15
2022-09-06T19:55:10.838Z,70.01
2022-09-06T19:57:40.214Z,70.18
2022-09-06T20:00:10.794Z,70.25
2022-09-06T20:02:40.767Z,70.04
2022-09-06T20:05:11.729Z,69.86
2022-09-06T20:07:40.754Z,70.18
2022-09-06T20:10:11.189Z,70.40
2022-09-06T20:12:40.184Z,70.67
2022-09-06T20:15:10.500Z,70.42
2022-09-06T20:17:39.728Z,70.61
2022-09-06T20:20:09.348Z,70.49
2022-09-06T20:22:39.780Z,70.36
2022-09-06T20:25:09.810Z,70.72
2022-09-06T20:27:41.381Z,69.97
2022-09-06T20:30:13.752Z,70.43
2022-09-06T20:32:42.665Z,70.77
2022-09-06T20:35:14.252Z,70.66
2022-09-06T20:37:44.751Z,70.25
2022-09-06T20:40:14.304Z,70.44
2022-09-06T20:42:46.293Z,70.38
2022-09-06T20:45:15.665Z,70.16
2022-09-06T20:47:44.894Z,69.95
2022-09-06T20:50:13.884Z,69.78
2022-09-06T20:52:44.317Z,70.01
2022-09-06T20:55:13.639Z,69.85
2022-09-06T20:57:42.678Z,70.10
2022-09-06T21:00:14.479Z,70.55
2022-09-06T21:02:43.553Z,70.31
2022-09-06T21:05:12.146Z,70.23
2022-09-06T21:07:40.754Z,70.45
2022-09-06T21:10:11.671Z,70.28
2022-09-06T21:12:40.288Z,70.39
2022-09-06T21:15:10.061Z,70.09
2022-09-06T21:17:38.933Z,70.13
2022-09-06T21:20:08.934Z,70.01
2022-09-06T21:22:41.551Z,70.51
2022-09-06T21:25:12.296Z,70.07
2022-09-06T21:27:40.983Z,70.11
2022-09-06T21:30:10.986Z,70.66
2022-09-06T21:32:39.686Z,69.66
2022-09-06T21:35:09.273Z,69.98
2022-09-06T21:37:38.184Z,70.47
2022-09-06T21:40:08.129Z,71.53
2022-09-06T21:42:38.443Z,70.69
2022-09-06T21:45:07.792Z,69.79
2022-09-06T21:47:36.507Z,69.98
2022-09-06T21:50:06.031Z,70.36
2022-09-06T21:52:34.570Z,70.53
2022-09-06T21:55:03.191Z,70.34
2022-09-06T21:57:32.066Z,70.22
2022-09-06T22:00:02.071Z,70.60
2022-09-06T22:02:34.116Z,70.70
2022-09-06T22:05:06.489Z,70.15
2022-09-06T22:07:37.014Z,69.82
2022-09-06T22:10:06.493Z,69.99
2022-09-06T22:12:35.086Z,69.99
2022-09-06T22:15:05.708Z,70.02
2022-09-06T22:17:34.581Z,69.61
2022-09-06T22:20:03.488Z,69.62
2022-09-06T22:22:32.503Z,69.33
2022-09-06T22:25:01.351Z,69.54
2022-09-06T22:27:29.981Z,69.59
2022-09-06T22:29:58.600Z,70.04
2022-09-06T22:32:28.821Z,69.99
2022-09-06T22:34:57.420Z,70.21
2022-09-06T22:37:26.151Z,69.79
2022-09-06T22:39:55.281Z,70.20
2022-09-06T22:42:23.972Z,70.11
2022-09-06T22:44:53.011Z,70.14
2022-09-06T22:47:22.061Z,70.31
2022-09-06T22:49:52.779Z,69.99
2022-09-06T22:52:21.402Z,70.25
2022-09-06T22:54:52.497Z,70.08
2022-09-06T22:57:21.063Z,70.00
2022-09-06T22:59:49.950Z,69.81
2022-09-06T23:02:18.556Z,70.00
2022-09-06T23:04:47.202Z,70.07
2022-09-06T23:07:17.476Z,69.65
2022-09-06T23:09:46.083Z,69.59
2022-09-06T23:12:14.682Z,69.66
2022-09-06T23:14:43.521Z,69.07
2022-09-06T23:17:14.104Z,69.77
2022-09-06T23:19:42.978Z,69.54
2022-09-06T23:22:12.042Z,69.68
2022-09-06T23:24:42.763Z,70.14
2022-09-06T23:27:11.643Z,69.65
2022-09-06T23:29:41.094Z,70.02
2022-09-06T23:32:09.700Z,69.16
2022-09-06T23:34:38.618Z,69.15
2022-09-06T23:37:07.306Z,68.87
2022-09-06T23:39:35.976Z,69.80
2022-09-06T23:42:06.411Z,69.15
2022-09-06T23:44:35.040Z,69.26
2022-09-06T23:47:03.707Z,69.98
2022-09-06T23:49:32.688Z,69.66
2022-09-06T23:52:01.316Z,69.63
2022-09-06T23:54:29.899Z,69.81
2022-09-06T23:56:58.771Z,69.40
2022-09-06T23:59:28.682Z,70.21
